Terminal Aerodrome Forecast
Issued by NWS Upton, NY

Home | Current Version | Previous Version | Text Only | Print | Product List | Glossary On
Versions: 1 2 3 4 5 6 7 8 9 10 11 12 13 14 15 16 17 18 19 20 21 22 23 24 25 26 27 28 29
076
FTUS41 KOKX 010830 AAA
TAFEWR
TAF AMD
KEWR 010830Z 0108/0212 13004KT P6SM BKN080
     FM011100 11006KT 6SM -SHRA OVC060
     FM011600 11007KT 4SM -RA OVC040
     FM011800 08008KT 2SM -RA BR OVC015
     FM012100 07006KT 2SM -SHRA BR OVC007
     FM020300 04005KT 2SM -SHRADZ BR OVC004=

USA.gov is the U.S. government's official web portal to all federal, state and local government web resources and services.